createdAt,value
2018-03-16T00:01:52.120Z,7.50
2018-03-16T00:04:18.416Z,7.40
2018-03-16T00:06:44.544Z,7.40
2018-03-16T00:09:10.697Z,7.50
2018-03-16T00:11:36.816Z,7.50
2018-03-16T00:14:02.965Z,7.50
2018-03-16T00:16:29.171Z,7.50
2018-03-16T00:18:55.320Z,7.50
2018-03-16T00:21:21.430Z,7.50
2018-03-16T00:23:47.535Z,7.50
2018-03-16T00:26:13.692Z,7.50
2018-03-16T00:28:39.905Z,7.50
2018-03-16T00:31:06.096Z,7.50
2018-03-16T00:33:32.252Z,7.50
2018-03-16T00:35:59.160Z,7.50
2018-03-16T00:38:25.980Z,7.60
2018-03-16T00:40:52.082Z,7.60
2018-03-16T00:43:18.186Z,7.60
2018-03-16T00:45:44.305Z,7.50
2018-03-16T00:48:10.526Z,7.50
2018-03-16T00:50:36.666Z,7.40
2018-03-16T00:53:02.808Z,7.50
2018-03-16T00:55:29.039Z,7.50
2018-03-16T00:57:55.189Z,7.50
2018-03-16T01:00:21.409Z,7.50
2018-03-16T01:02:47.603Z,7.50
2018-03-16T01:05:13.740Z,7.50
2018-03-16T01:07:39.888Z,7.50
2018-03-16T01:10:06.036Z,7.50
2018-03-16T01:12:32.194Z,7.40
2018-03-16T01:17:31.284Z,7.40
2018-03-16T01:19:58.129Z,7.40
2018-03-16T01:22:24.978Z,7.40
2018-03-16T01:24:51.081Z,7.40
2018-03-16T01:27:17.208Z,7.40
2018-03-16T01:29:43.368Z,7.40
2018-03-16T01:32:09.493Z,7.40
2018-03-16T01:34:35.564Z,7.30
2018-03-16T01:37:01.688Z,7.30
2018-03-16T01:39:27.810Z,7.30
2018-03-16T01:41:53.912Z,7.20
2018-03-16T01:44:20.108Z,7.20
2018-03-16T01:46:47.024Z,7.20
2018-03-16T01:49:13.195Z,7.20
2018-03-16T01:51:39.326Z,7.20
2018-03-16T01:54:06.113Z,7.20
2018-03-16T01:56:32.274Z,7.20
2018-03-16T01:58:59.165Z,7.10
2018-03-16T02:01:25.325Z,7.10
2018-03-16T02:03:51.437Z,7.10
2018-03-16T02:06:17.596Z,7.10
2018-03-16T02:08:44.513Z,7.10
2018-03-16T02:11:10.612Z,7.00
2018-03-16T02:13:36.742Z,7.10
2018-03-16T02:16:02.892Z,7.10
2018-03-16T02:18:29.010Z,7.10
2018-03-16T02:20:55.109Z,7.10
2018-03-16T02:23:21.289Z,7.10
2018-03-16T02:25:47.395Z,7.00
2018-03-16T02:28:13.536Z,7.00
2018-03-16T02:30:39.648Z,7.00
2018-03-16T02:33:05.747Z,7.00
2018-03-16T02:35:31.837Z,7.00
2018-03-16T02:37:58.669Z,7.00
2018-03-16T02:40:24.720Z,7.00
2018-03-16T02:42:50.764Z,7.00
2018-03-16T02:45:16.833Z,6.90
2018-03-16T02:47:42.907Z,7.00
2018-03-16T02:50:08.960Z,7.00
2018-03-16T02:52:35.012Z,7.00
2018-03-16T02:55:01.797Z,6.90
2018-03-16T02:57:27.850Z,6.90
2018-03-16T02:59:53.903Z,6.90
2018-03-16T03:02:20.696Z,6.90
2018-03-16T03:04:46.757Z,6.90
2018-03-16T03:07:12.817Z,7.00
2018-03-16T03:09:38.862Z,6.90
2018-03-16T03:12:04.898Z,6.90
2018-03-16T03:14:30.946Z,6.90
2018-03-16T03:16:57.004Z,6.90
2018-03-16T03:19:23.052Z,6.90
2018-03-16T03:21:49.123Z,6.90
2018-03-16T03:24:15.151Z,6.90
2018-03-16T03:26:41.192Z,6.90
2018-03-16T03:29:07.969Z,6.90
2018-03-16T03:31:34.024Z,6.90
2018-03-16T03:34:00.055Z,6.90
2018-03-16T03:36:26.095Z,6.90
2018-03-16T03:38:52.140Z,6.90
2018-03-16T03:41:18.174Z,6.90
2018-03-16T03:43:44.220Z,6.80
2018-03-16T03:46:10.251Z,6.80
2018-03-16T03:48:36.305Z,6.80
2018-03-16T03:51:02.356Z,6.80
2018-03-16T03:53:29.153Z,6.70
2018-03-16T03:55:55.194Z,6.70
2018-03-16T03:58:21.245Z,6.70
2018-03-16T04:00:48.055Z,6.70
2018-03-16T04:03:14.113Z,6.70
2018-03-16T04:05:40.879Z,6.70
2018-03-16T04:08:07.002Z,6.70
2018-03-16T04:10:33.829Z,6.80
2018-03-16T04:12:59.878Z,6.70
2018-03-16T04:15:25.984Z,6.70
2018-03-16T04:17:52.063Z,6.70
2018-03-16T04:20:18.122Z,6.70
2018-03-16T04:22:44.191Z,6.80
2018-03-16T04:25:10.220Z,6.80
2018-03-16T04:27:36.321Z,6.80
2018-03-16T04:30:02.426Z,6.70
2018-03-16T04:32:28.505Z,6.80
2018-03-16T04:34:54.571Z,6.80
2018-03-16T04:37:20.654Z,6.80
2018-03-16T04:39:46.708Z,6.80
2018-03-16T04:42:13.511Z,6.80
2018-03-16T04:44:39.543Z,6.80
2018-03-16T04:47:05.607Z,6.80
2018-03-16T04:49:32.410Z,6.80
2018-03-16T04:51:58.478Z,6.80
2018-03-16T04:54:24.518Z,6.80
2018-03-16T04:56:50.552Z,6.80
2018-03-16T04:59:17.369Z,6.60
2018-03-16T05:01:44.152Z,6.70
2018-03-16T05:04:10.197Z,6.70
2018-03-16T05:06:36.261Z,6.70
2018-03-16T05:09:02.336Z,6.70
2018-03-16T05:11:28.367Z,6.80
2018-03-16T05:13:54.424Z,6.80
2018-03-16T05:16:21.245Z,6.80
2018-03-16T05:18:47.298Z,6.70
2018-03-16T05:21:13.351Z,6.70
2018-03-16T05:23:39.404Z,6.70
2018-03-16T05:26:05.470Z,6.70
2018-03-16T05:28:31.540Z,6.80
2018-03-16T05:30:57.571Z,6.80
2018-03-16T05:33:23.641Z,6.80
2018-03-16T05:35:49.689Z,6.80
2018-03-16T05:38:15.748Z,6.80
2018-03-16T05:40:41.801Z,6.80
2018-03-16T05:43:08.592Z,6.80
2018-03-16T05:45:34.646Z,6.80
2018-03-16T05:48:00.733Z,6.80
2018-03-16T05:50:26.815Z,6.80
2018-03-16T05:52:53.585Z,6.70
2018-03-16T05:55:19.628Z,6.70
2018-03-16T05:57:45.672Z,6.80
2018-03-16T06:00:11.780Z,6.80
2018-03-16T06:02:37.839Z,6.80
2018-03-16T06:05:03.873Z,6.70
2018-03-16T06:07:30.680Z,6.80
2018-03-16T06:09:56.708Z,6.80
2018-03-16T06:12:22.794Z,6.80
2018-03-16T06:14:48.843Z,6.80
2018-03-16T06:17:14.879Z,6.90
2018-03-16T06:19:40.920Z,6.80
2018-03-16T06:22:06.954Z,6.90
2018-03-16T06:24:32.987Z,6.90
2018-03-16T06:26:59.784Z,6.90
2018-03-16T06:29:25.803Z,6.90
2018-03-16T06:31:51.837Z,6.90
2018-03-16T06:34:17.890Z,7.00
2018-03-16T06:36:43.925Z,7.00
2018-03-16T06:39:10.704Z,7.00
2018-03-16T06:41:36.731Z,7.00
2018-03-16T06:44:03.563Z,6.90
2018-03-16T06:46:29.595Z,6.90
2018-03-16T06:48:55.648Z,7.00
2018-03-16T06:51:21.677Z,7.00
2018-03-16T06:53:47.770Z,7.00
2018-03-16T06:56:13.919Z,7.10
2018-03-16T06:58:40.658Z,7.10
2018-03-16T07:01:06.719Z,7.10
2018-03-16T07:03:33.507Z,7.10
2018-03-16T07:05:59.569Z,7.10
2018-03-16T07:08:25.632Z,7.00
2018-03-16T07:10:51.666Z,7.10
2018-03-16T07:13:17.699Z,7.20
2018-03-16T07:15:43.753Z,7.30
2018-03-16T07:18:09.794Z,7.30
2018-03-16T07:20:35.823Z,7.30
2018-03-16T07:23:01.880Z,7.40
2018-03-16T07:25:27.914Z,7.50
2018-03-16T07:27:53.955Z,7.50
2018-03-16T07:30:25.979Z,7.50
2018-03-16T07:32:52.094Z,7.50
2018-03-16T07:35:18.142Z,7.60
2018-03-16T07:37:44.277Z,7.50
2018-03-16T07:40:10.420Z,7.50
2018-03-16T07:42:37.260Z,7.50
2018-03-16T07:45:04.072Z,7.50
2018-03-16T07:47:30.128Z,7.50
2018-03-16T07:49:56.924Z,7.40
2018-03-16T07:52:22.977Z,7.40
2018-03-16T07:54:49.044Z,7.50
2018-03-16T07:57:15.144Z,7.50
2018-03-16T07:59:42.008Z,7.50
2018-03-16T08:02:08.093Z,7.50
2018-03-16T08:04:34.160Z,7.50
2018-03-16T08:07:00.240Z,7.60
2018-03-16T08:09:26.285Z,7.60
2018-03-16T08:11:53.088Z,7.60
2018-03-16T08:14:19.152Z,7.50
2018-03-16T08:16:45.948Z,7.60
2018-03-16T08:19:12.098Z,7.50
2018-03-16T08:21:38.251Z,7.60
2018-03-16T08:24:04.381Z,7.60
2018-03-16T08:26:30.498Z,7.70
2018-03-16T08:28:56.603Z,7.60
2018-03-16T08:31:22.729Z,7.70
2018-03-16T08:33:48.856Z,7.70
2018-03-16T08:36:14.960Z,7.60
2018-03-16T08:38:41.089Z,7.70
2018-03-16T08:41:07.230Z,7.70
2018-03-16T08:43:33.445Z,7.70
2018-03-16T08:45:59.641Z,7.80
2018-03-16T08:48:25.801Z,7.80
2018-03-16T08:50:51.973Z,7.80
2018-03-16T08:53:18.103Z,7.80
2018-03-16T08:55:44.244Z,7.80
2018-03-16T08:58:10.403Z,7.70
2018-03-16T09:00:36.579Z,7.80
2018-03-16T09:03:02.746Z,7.70
2018-03-16T09:05:28.909Z,7.80
2018-03-16T09:07:55.841Z,7.80
2018-03-16T09:10:22.036Z,7.80
2018-03-16T09:12:48.210Z,7.80
2018-03-16T09:15:15.158Z,7.80
2018-03-16T09:17:42.152Z,7.80
2018-03-16T09:20:08.345Z,7.80
2018-03-16T09:22:35.212Z,7.70
2018-03-16T09:25:01.374Z,7.70
2018-03-16T09:27:27.509Z,7.80
2018-03-16T09:29:53.645Z,7.80
2018-03-16T09:32:19.766Z,7.80
2018-03-16T09:34:45.950Z,7.90
2018-03-16T09:37:12.191Z,7.90
2018-03-16T09:39:38.371Z,8.00
2018-03-16T09:42:04.536Z,8.00
2018-03-16T09:44:30.709Z,8.10
2018-03-16T09:46:56.841Z,8.20
2018-03-16T09:49:22.952Z,8.20
2018-03-16T09:51:50.034Z,8.30
2018-03-16T09:54:16.180Z,8.40
2018-03-16T09:56:42.267Z,8.40
2018-03-16T09:59:09.125Z,8.30
2018-03-16T10:01:35.984Z,8.30
2018-03-16T10:04:02.202Z,8.30
2018-03-16T10:06:28.400Z,8.50
2018-03-16T10:08:54.557Z,8.50
2018-03-16T10:11:20.752Z,8.60
2018-03-16T10:13:46.907Z,8.60
2018-03-16T10:16:13.074Z,8.70
2018-03-16T10:18:39.322Z,8.80
2018-03-16T10:21:05.497Z,8.90
2018-03-16T10:23:31.629Z,8.90
2018-03-16T10:25:57.775Z,9.10
2018-03-16T10:28:23.906Z,9.10
2018-03-16T10:30:50.048Z,9.20
2018-03-16T10:33:16.248Z,9.20
2018-03-16T10:35:42.436Z,9.20
2018-03-16T10:38:08.568Z,9.20
2018-03-16T10:40:35.477Z,9.00
2018-03-16T10:43:01.666Z,9.00
2018-03-16T10:45:27.765Z,8.70
2018-03-16T10:47:54.605Z,8.90
2018-03-16T10:50:21.525Z,8.90
2018-03-16T10:52:47.668Z,9.00
2018-03-16T10:55:14.507Z,9.30
2018-03-16T10:57:40.854Z,9.20
2018-03-16T11:00:07.780Z,9.30
2018-03-16T11:02:40.090Z,9.30
2018-03-16T11:05:12.272Z,9.30
2018-03-16T11:08:06.634Z,9.30
2018-03-16T11:10:32.721Z,9.30
2018-03-16T11:12:58.884Z,9.40
2018-03-16T11:15:25.089Z,9.50
2018-03-16T11:17:52.006Z,9.30
2018-03-16T11:20:18.210Z,9.30
2018-03-16T11:22:44.763Z,9.20
2018-03-16T11:25:10.990Z,9.10
2018-03-16T11:27:37.248Z,9.00
2018-03-16T11:30:03.325Z,9.00
2018-03-16T11:32:29.444Z,9.10
2018-03-16T11:34:55.639Z,9.20
2018-03-16T11:37:22.480Z,9.30
2018-03-16T11:39:49.346Z,9.40
2018-03-16T11:42:16.214Z,9.30
2018-03-16T11:44:42.350Z,9.30
2018-03-16T11:47:08.517Z,9.30
2018-03-16T11:49:34.628Z,9.30
2018-03-16T11:52:00.805Z,9.50
2018-03-16T11:54:26.957Z,9.60
2018-03-16T11:56:53.125Z,9.70
2018-03-16T11:59:20.013Z,9.70
2018-03-16T12:01:46.186Z,9.70
2018-03-16T12:04:13.065Z,9.50
2018-03-16T12:06:39.212Z,9.50
2018-03-16T12:09:05.318Z,9.40
2018-03-16T12:11:31.463Z,9.40
2018-03-16T12:13:57.565Z,9.40
2018-03-16T12:16:24.433Z,9.50
2018-03-16T12:18:50.547Z,9.40
2018-03-16T12:21:16.690Z,9.20
2018-03-16T12:23:42.799Z,8.90
2018-03-16T12:26:08.936Z,8.70
2018-03-16T12:28:49.522Z,8.60
2018-03-16T12:31:01.881Z,8.60
2018-03-16T12:33:27.999Z,8.60
2018-03-16T12:35:54.136Z,8.80
2018-03-16T12:38:20.266Z,9.70
2018-03-16T12:40:46.445Z,10.10
2018-03-16T12:43:12.662Z,9.90
2018-03-16T12:45:38.802Z,10.50
2018-03-16T12:48:04.887Z,10.80
2018-03-16T12:50:31.094Z,10.70
2018-03-16T12:52:57.219Z,11.00
2018-03-16T12:55:23.346Z,10.90
2018-03-16T12:57:49.472Z,10.00
2018-03-16T13:00:15.620Z,9.80
2018-03-16T13:02:41.785Z,9.70
2018-03-16T13:05:07.973Z,9.70
2018-03-16T13:07:34.104Z,9.80
2018-03-16T13:10:00.285Z,9.70
2018-03-16T13:12:27.153Z,10.20
2018-03-16T13:14:53.291Z,10.20
2018-03-16T13:17:19.453Z,10.50
2018-03-16T13:19:45.662Z,10.40
2018-03-16T13:22:11.781Z,10.30
2018-03-16T13:24:37.964Z,10.10
2018-03-16T13:27:04.933Z,10.30
2018-03-16T13:29:31.078Z,10.30
2018-03-16T13:31:57.209Z,10.00
2018-03-16T13:34:23.413Z,10.10
2018-03-16T13:36:49.633Z,10.20
2018-03-16T13:39:15.846Z,10.60
2018-03-16T13:41:42.775Z,10.90
2018-03-16T13:44:08.977Z,10.90
2018-03-16T13:46:35.122Z,11.00
2018-03-16T13:49:01.370Z,11.60
2018-03-16T13:51:28.350Z,12.50
2018-03-16T13:53:54.562Z,12.50
2018-03-16T13:56:20.715Z,12.70
2018-03-16T13:58:46.856Z,13.10
2018-03-16T14:01:13.001Z,13.20
2018-03-16T14:03:39.177Z,12.70
2018-03-16T14:06:05.300Z,12.10
2018-03-16T14:08:31.471Z,11.70
2018-03-16T14:10:57.672Z,11.40
2018-03-16T14:13:23.813Z,11.30
2018-03-16T14:15:49.968Z,11.50
2018-03-16T14:18:16.090Z,11.10
2018-03-16T14:20:42.248Z,11.40
2018-03-16T14:23:09.142Z,12.50
2018-03-16T14:25:35.301Z,12.50
2018-03-16T14:28:01.500Z,13.00
2018-03-16T14:30:27.685Z,12.60
2018-03-16T14:32:53.928Z,12.30
2018-03-16T14:35:20.054Z,12.00
2018-03-16T14:37:46.173Z,11.70
2018-03-16T14:40:12.350Z,11.60
2018-03-16T14:42:38.511Z,11.40
2018-03-16T14:45:04.678Z,11.40
2018-03-16T14:47:30.811Z,11.40
2018-03-16T14:49:57.049Z,11.50
2018-03-16T14:52:23.190Z,11.30
2018-03-16T14:54:49.363Z,11.30
2018-03-16T14:57:15.494Z,11.30
2018-03-16T14:59:41.714Z,11.30
2018-03-16T15:02:07.907Z,11.20
2018-03-16T15:04:34.076Z,11.20
2018-03-16T15:07:00.948Z,11.10
2018-03-16T15:09:27.120Z,11.00
2018-03-16T15:11:53.273Z,11.10
2018-03-16T15:14:19.413Z,11.00
2018-03-16T15:16:45.585Z,11.20
2018-03-16T15:19:11.786Z,11.30
2018-03-16T15:21:37.981Z,11.30
2018-03-16T15:24:04.105Z,11.00
2018-03-16T15:26:30.270Z,10.90
2018-03-16T15:28:56.421Z,10.90
2018-03-16T15:31:23.360Z,11.00
2018-03-16T15:33:49.597Z,11.50
2018-03-16T15:36:15.801Z,11.90
2018-03-16T15:38:42.105Z,12.60
2018-03-16T15:41:08.350Z,13.30
2018-03-16T15:43:34.545Z,13.60
2018-03-16T15:46:00.677Z,13.30
2018-03-16T15:48:26.864Z,12.80
2018-03-16T15:50:53.025Z,12.50
2018-03-16T15:53:19.132Z,12.50
2018-03-16T15:55:45.303Z,11.70
2018-03-16T15:58:11.417Z,11.60
2018-03-16T16:00:37.554Z,11.60
2018-03-16T16:03:03.656Z,11.60
2018-03-16T16:05:29.821Z,11.50
2018-03-16T16:07:55.925Z,11.50
2018-03-16T16:10:22.073Z,11.40
2018-03-16T16:12:48.233Z,11.50
2018-03-16T16:15:14.363Z,11.50
2018-03-16T16:17:40.530Z,11.50
2018-03-16T16:20:06.757Z,11.30
2018-03-16T16:22:32.889Z,11.30
2018-03-16T16:24:59.025Z,11.30
2018-03-16T16:27:25.225Z,11.20
2018-03-16T16:29:51.359Z,11.10
2018-03-16T16:32:17.550Z,11.20
2018-03-16T16:34:43.732Z,11.30
2018-03-16T16:37:09.913Z,11.40
2018-03-16T16:39:36.080Z,11.30
2018-03-16T16:42:02.236Z,11.20
2018-03-16T16:44:28.441Z,11.10
2018-03-16T16:46:54.576Z,11.00
2018-03-16T16:49:20.708Z,10.90
2018-03-16T16:51:46.986Z,10.90
2018-03-16T16:54:13.049Z,11.00
2018-03-16T16:56:39.257Z,11.10
2018-03-16T16:59:05.437Z,11.10
2018-03-16T17:01:32.358Z,10.90
2018-03-16T17:03:58.550Z,10.90
2018-03-16T17:06:24.744Z,10.90
2018-03-16T17:08:51.633Z,11.00
2018-03-16T17:11:17.914Z,10.90
2018-03-16T17:13:44.082Z,10.90
2018-03-16T17:16:10.264Z,10.90
2018-03-16T17:18:37.155Z,11.00
2018-03-16T17:21:03.341Z,10.90
2018-03-16T17:23:30.218Z,10.90
2018-03-16T17:25:56.452Z,10.80
2018-03-16T17:28:22.660Z,11.00
2018-03-16T17:30:48.910Z,10.90
2018-03-16T17:33:15.144Z,10.90
2018-03-16T17:35:41.368Z,10.80
2018-03-16T17:38:07.585Z,10.70
2018-03-16T17:40:33.826Z,10.60
2018-03-16T17:42:59.953Z,10.50
2018-03-16T17:45:26.132Z,10.50
2018-03-16T17:47:53.037Z,10.50
2018-03-16T17:50:19.155Z,10.50
2018-03-16T17:52:45.480Z,10.50
2018-03-16T17:55:11.680Z,10.50
2018-03-16T17:57:38.646Z,10.20
2018-03-16T18:00:04.848Z,10.20
2018-03-16T18:02:30.996Z,10.10
2018-03-16T18:04:57.130Z,10.10
2018-03-16T18:07:23.251Z,10.00
2018-03-16T18:09:49.399Z,9.90
2018-03-16T18:12:15.574Z,9.90
2018-03-16T18:14:41.783Z,9.80
2018-03-16T18:17:07.874Z,9.70
2018-03-16T18:19:34.056Z,9.60
2018-03-16T18:22:00.997Z,9.40
2018-03-16T18:24:27.867Z,9.30
2018-03-16T18:26:54.008Z,9.30
2018-03-16T18:29:20.232Z,9.10
2018-03-16T18:31:46.456Z,9.10
2018-03-16T18:34:12.650Z,9.00
2018-03-16T18:36:39.557Z,8.90
2018-03-16T18:39:05.708Z,8.90
2018-03-16T18:41:31.906Z,8.90
2018-03-16T18:43:58.061Z,8.90
2018-03-16T18:46:24.243Z,8.90
2018-03-16T18:48:50.374Z,8.70
2018-03-16T18:51:16.537Z,8.60
2018-03-16T18:53:42.690Z,8.70
2018-03-16T18:56:09.585Z,8.70
2018-03-16T18:58:35.718Z,8.70
2018-03-16T19:01:01.937Z,8.60
2018-03-16T19:03:28.056Z,8.50
2018-03-16T19:05:54.226Z,8.40
2018-03-16T19:08:21.064Z,8.00
2018-03-16T19:10:47.980Z,8.00
2018-03-16T19:13:14.104Z,8.00
2018-03-16T19:15:40.307Z,8.10
2018-03-16T19:18:06.537Z,8.10
2018-03-16T19:20:32.673Z,8.00
2018-03-16T19:22:58.848Z,7.80
2018-03-16T19:25:25.770Z,7.80
2018-03-16T19:27:51.955Z,7.80
2018-03-16T19:30:18.085Z,7.70
2018-03-16T19:32:44.313Z,7.60
2018-03-16T19:35:10.457Z,7.50
2018-03-16T19:37:36.668Z,7.20
2018-03-16T19:40:02.809Z,7.00
2018-03-16T19:42:28.936Z,7.00
2018-03-16T19:44:55.104Z,7.20
2018-03-16T19:47:22.054Z,7.40
2018-03-16T19:49:49.011Z,7.30
2018-03-16T19:52:15.879Z,7.30
2018-03-16T19:54:42.098Z,7.30
2018-03-16T19:57:08.248Z,7.10
2018-03-16T19:59:34.421Z,7.20
2018-03-16T20:02:01.377Z,7.10
2018-03-16T20:04:28.281Z,7.00
2018-03-16T20:06:54.432Z,7.00
2018-03-16T20:09:20.568Z,6.90
2018-03-16T20:11:47.477Z,6.70
2018-03-16T20:14:13.653Z,6.80
2018-03-16T20:16:40.532Z,6.40
2018-03-16T20:19:06.661Z,6.40
2018-03-16T20:21:32.864Z,6.60
2018-03-16T20:23:59.017Z,6.30
2018-03-16T20:26:25.173Z,6.30
2018-03-16T20:28:51.261Z,6.20
2018-03-16T20:31:17.401Z,6.40
2018-03-16T20:33:43.593Z,6.60
2018-03-16T20:36:09.785Z,6.50
2018-03-16T20:38:35.919Z,6.30
2018-03-16T20:41:02.818Z,6.10
2018-03-16T20:43:29.020Z,6.00
2018-03-16T20:45:55.216Z,6.00
2018-03-16T20:48:21.308Z,6.00
2018-03-16T20:50:47.452Z,6.10
2018-03-16T20:53:13.597Z,6.20
2018-03-16T20:55:39.814Z,6.40
2018-03-16T20:58:06.770Z,6.10
2018-03-16T21:00:32.926Z,6.10
2018-03-16T21:02:59.017Z,6.00
2018-03-16T21:05:25.152Z,6.00
2018-03-16T21:07:51.281Z,5.90
2018-03-16T21:10:18.141Z,5.70
2018-03-16T21:12:45.008Z,5.70
2018-03-16T21:15:11.136Z,5.60
2018-03-16T21:17:37.268Z,5.60
2018-03-16T21:20:03.416Z,5.70
2018-03-16T21:22:29.493Z,5.80
2018-03-16T21:24:55.596Z,5.90
2018-03-16T21:27:22.480Z,5.70
2018-03-16T21:29:48.613Z,5.70
2018-03-16T21:32:14.730Z,5.70
2018-03-16T21:34:40.832Z,5.70
2018-03-16T21:37:07.730Z,5.80
2018-03-16T21:39:33.855Z,5.80
2018-03-16T21:42:00.008Z,5.90
2018-03-16T21:44:26.149Z,6.00
2018-03-16T21:46:52.997Z,6.10
2018-03-16T21:49:19.147Z,6.00
2018-03-16T21:51:45.290Z,6.00
2018-03-16T21:54:11.409Z,6.00
2018-03-16T21:56:37.572Z,5.90
2018-03-16T21:59:03.701Z,5.80
2018-03-16T22:01:29.908Z,5.70
2018-03-16T22:03:55.996Z,5.60
2018-03-16T22:06:22.138Z,5.70
2018-03-16T22:08:48.332Z,5.80
2018-03-16T22:11:15.229Z,6.20
2018-03-16T22:13:41.410Z,6.20
2018-03-16T22:16:07.528Z,6.10
2018-03-16T22:18:34.450Z,6.00
2018-03-16T22:21:01.329Z,6.00
2018-03-16T22:23:27.407Z,6.00
2018-03-16T22:25:53.703Z,6.10
2018-03-16T22:28:19.836Z,6.10
2018-03-16T22:30:45.958Z,6.20
2018-03-16T22:33:12.133Z,6.30
2018-03-16T22:35:38.489Z,6.30
2018-03-16T22:38:05.412Z,6.50
2018-03-16T22:40:32.281Z,6.40
2018-03-16T22:42:58.413Z,6.40
2018-03-16T22:45:24.488Z,6.30
2018-03-16T22:47:50.614Z,6.10
2018-03-16T22:50:16.705Z,6.10
2018-03-16T22:52:42.821Z,6.00
2018-03-16T22:55:08.944Z,6.00
2018-03-16T22:57:35.062Z,5.90
2018-03-16T23:00:01.190Z,5.80
2018-03-16T23:02:27.309Z,5.70
2018-03-16T23:04:53.421Z,5.60
2018-03-16T23:07:20.331Z,5.40
2018-03-16T23:09:46.492Z,5.40
2018-03-16T23:12:13.364Z,5.40
2018-03-16T23:14:39.453Z,5.40
2018-03-16T23:17:06.357Z,5.30
2018-03-16T23:19:32.531Z,5.30
2018-03-16T23:21:58.673Z,5.30
2018-03-16T23:24:24.862Z,5.30
2018-03-16T23:26:51.016Z,5.10
2018-03-16T23:29:17.116Z,5.00
2018-03-16T23:31:43.247Z,5.00
2018-03-16T23:34:09.396Z,5.00
2018-03-16T23:36:35.534Z,5.00
2018-03-16T23:39:01.683Z,4.90
2018-03-16T23:41:27.885Z,4.80
2018-03-16T23:43:54.005Z,4.70
2018-03-16T23:46:20.124Z,4.70
2018-03-16T23:48:46.288Z,4.70
2018-03-16T23:51:12.381Z,4.80
2018-03-16T23:53:38.538Z,4.70
2018-03-16T23:56:04.666Z,4.70
2018-03-16T23:58:30.761Z,4.60
